Hav Nordic — OZ2119 — position and weather

sailwx.info

Track history (hours):
 
Tides and Currents Weather Stations Pressure Air Temp Water Temp Dewpoint Dewpoint Depression Visibility Wind Speed Wind Dir Waves Ship Positions

Hav Nordic

Last reported at 2018-May-19 07:02 UTC. Time now 2018-May-21 05:26 UTC.
Position N 57°37' W 001°42'.

Length 75 m; draft 4 m.

Type: Cargo ship. MMSI: 231812000.

Date/timePositionNaut miles runAvg speedWind from/ knotsBaromVisibWave heightAir tempDewpointWater temp
2018-May-19 07:02N 57°37' W 001°42'112.9
2018-May-19 07:00N 57°36' W 001°42'612.5
2018-May-19 06:29N 57°30' W 001°41'611.9
2018-May-19 06:00N 57°24' W 001°43'611.2
2018-May-19 05:26N 57°18' W 001°47'510.7
2018-May-19 05:00N 57°14' W 001°49'510.2
2018-May-19 04:30N 57°09' W 001°52'510.0
2018-May-19 04:00N 57°04' W 001°55'5 9.6
2018-May-19 03:30N 56°60' W 001°58'3510.1
2018-May-19 00:06N 56°27' W 002°19'111.1
2018-May-19 00:00N 56°26' W 002°19'611.3
2018-May-18 23:30N 56°21' W 002°23'611.6
2018-May-18 23:00N 56°15' W 002°27'611.2
2018-May-18 22:30N 56°12' W 002°35'611.4
2018-May-18 22:00N 56°09' W 002°44'611.7
2018-May-18 21:30N 56°07' W 002°54'611.7
2018-May-18 21:00N 56°04' W 003°03'611.5
2018-May-18 20:29N 56°02' W 003°13'3 0.1
2018-May-17 12:39N 56°01' W 003°19'211.6
2018-May-17 12:27N 56°02' W 003°15'510.9
2018-May-17 12:00N 56°03' W 003°07'3 5.6
2018-May-17 11:30N 56°04' W 003°02'5 9.7
2018-May-17 11:00N 56°05' W 002°54'5 9.8
2018-May-17 10:30N 56°07' W 002°46'5 9.6
2018-May-17 10:00N 56°09' W 002°38'5 9.7
2018-May-17 09:30N 56°11' W 002°30'5 9.2
2018-May-17 09:00N 56°15' W 002°26'5 9.2
2018-May-17 08:26N 56°20' W 002°23'4 9.1
2018-May-17 08:00N 56°24' W 002°21'34 9.6
2018-May-17 04:30N 56°55' W 001°60'510.7
2018-May-17 04:00N 56°60' W 001°57'511.0
2018-May-17 03:30N 57°05' W 001°54'611.2
2018-May-17 03:00N 57°11' W 001°51'611.2
2018-May-17 02:30N 57°16' W 001°48'611.9
2018-May-17 02:00N 57°22' W 001°44'611.9
2018-May-17 01:30N 57°27' W 001°40'612.2
2018-May-17 01:00N 57°33' W 001°40'  
2018-May-12 13:14N 68°29' E 012°41'310.7
2018-May-12 13:00N 68°30' E 012°47'510.8
2018-May-12 12:30N 68°33' E 012°60'510.7
2018-May-12 12:00N 68°35' E 013°13'510.7
2018-May-12 11:30N 68°38' E 013°26'510.8
2018-May-12 11:00N 68°40' E 013°38'611.0
2018-May-12 10:30N 68°43' E 013°52'510.9
2018-May-12 10:00N 68°45' E 014°05'510.6
2018-May-12 09:30N 68°48' E 014°18'611.0
2018-May-12 09:00N 68°50' E 014°32'510.9
2018-May-12 08:30N 68°52' E 014°46'510.3
2018-May-12 08:00N 68°53' E 015°00'2 4.1
2018-May-12 07:30N 68°55' E 015°03'0 0.0
2018-May-12 06:56N 68°55' E 015°03'0 0.0
2018-May-12 06:30N 68°55' E 015°03'0 0.0
2018-May-12 05:59N 68°55' E 015°03'0 0.0
2018-May-12 05:30N 68°55' E 015°03'0 0.0
2018-May-12 05:00N 68°55' E 015°03'0 0.5
2018-May-12 04:30N 68°55' E 015°04'0 0.0
2018-May-12 04:00N 68°55' E 015°04'0 0.0
2018-May-12 03:30N 68°55' E 015°04'0 0.0
2018-May-12 03:00N 68°55' E 015°04'0 0.0
2018-May-12 02:28N 68°55' E 015°04'0 0.0
2018-May-12 02:00N 68°55' E 015°04'0 0.0
2018-May-12 01:30N 68°55' E 015°04'0 0.0
2018-May-12 01:00N 68°55' E 015°04'0 0.0
2018-May-12 00:29N 68°55' E 015°04'0 0.0
2018-May-12 00:00N 68°55' E 015°04'0 0.0
2018-May-11 23:30N 68°55' E 015°04'0 0.0
2018-May-11 22:59N 68°55' E 015°04'0 0.0
2018-May-11 22:30N 68°55' E 015°04'0 0.0
2018-May-11 21:59N 68°55' E 015°04'0 0.0
2018-May-11 21:30N 68°55' E 015°04'0 0.0
2018-May-11 20:59N 68°55' E 015°04'0 0.0
2018-May-11 20:30N 68°55' E 015°04'0 0.0
2018-May-11 20:00N 68°55' E 015°04'0 0.0
2018-May-11 19:30N 68°55' E 015°04'0 0.0
2018-May-11 19:00N 68°55' E 015°04'0 0.0
2018-May-11 18:30N 68°55' E 015°04'0 0.0
2018-May-11 18:00N 68°55' E 015°04'0 0.0
2018-May-11 17:30N 68°55' E 015°04'0 0.0
2018-May-11 17:00N 68°55' E 015°04'0 0.0
2018-May-11 16:30N 68°55' E 015°04'0 0.0
2018-May-11 16:00N 68°55' E 015°04'0 0.0
2018-May-11 15:30N 68°55' E 015°04'0 0.0
2018-May-11 14:59N 68°55' E 015°04'0 0.0
2018-May-11 14:30N 68°55' E 015°04'0 0.0
2018-May-11 13:57N 68°55' E 015°04'0 0.0
2018-May-11 13:30N 68°55' E 015°04'0 0.0
2018-May-11 13:00N 68°55' E 015°04'0 0.0
2018-May-11 12:30N 68°55' E 015°04'0 0.0
2018-May-11 12:00N 68°55' E 015°04'0 0.0
2018-May-11 11:30N 68°55' E 015°04'0 0.0
2018-May-11 11:00N 68°55' E 015°04'0 0.0
2018-May-11 10:30N 68°55' E 015°04'0 0.0
2018-May-11 10:00N 68°55' E 015°04'0 0.0
2018-May-11 09:30N 68°55' E 015°04'0 0.0
2018-May-11 09:00N 68°55' E 015°04'0 0.0
2018-May-11 08:30N 68°55' E 015°04'0 0.0
2018-May-11 08:00N 68°55' E 015°04'0 0.0
2018-May-11 07:30N 68°55' E 015°04'0 0.0
2018-May-11 07:00N 68°55' E 015°04'0 0.0
2018-May-11 06:30N 68°55' E 015°04'0 0.0
2018-May-11 06:00N 68°55' E 015°04'0 0.0
2018-May-11 05:30N 68°55' E 015°04'0 0.0
2018-May-11 05:00N 68°55' E 015°04'0 0.0
2018-May-11 04:30N 68°55' E 015°04'0 0.0
2018-May-11 04:00N 68°55' E 015°04'0 0.0
2018-May-11 03:30N 68°55' E 015°04'0 0.0
2018-May-11 02:59N 68°55' E 015°04'0 0.0
2018-May-11 02:29N 68°55' E 015°04'0 0.0
2018-May-11 02:00N 68°55' E 015°04'0 0.0
2018-May-11 01:30N 68°55' E 015°04'0 0.0
2018-May-11 01:00N 68°55' E 015°04'0 0.0
2018-May-11 00:30N 68°55' E 015°04'0 0.0
2018-May-11 00:00N 68°55' E 015°04'0 0.0
2018-May-10 23:30N 68°55' E 015°04'0 0.0
2018-May-10 23:00N 68°55' E 015°04'0 0.0
2018-May-10 22:30N 68°55' E 015°04'0 0.0
2018-May-10 22:00N 68°55' E 015°04'0 0.0
2018-May-10 21:30N 68°55' E 015°04'0 0.0
2018-May-10 21:00N 68°55' E 015°04'0 0.0
2018-May-10 20:30N 68°55' E 015°04'0 0.0
2018-May-10 19:59N 68°55' E 015°04'0 0.0
2018-May-10 19:30N 68°55' E 015°04'0 0.0
2018-May-10 18:59N 68°55' E 015°04'0 0.0
2018-May-10 18:30N 68°55' E 015°04'0 0.0
2018-May-10 18:00N 68°55' E 015°04'0 0.0
2018-May-10 17:30N 68°55' E 015°04'0 0.0
2018-May-10 17:00N 68°55' E 015°04'0 0.0
2018-May-10 16:30N 68°55' E 015°04'0 0.0
2018-May-10 16:00N 68°55' E 015°04'0 0.0
2018-May-10 15:30N 68°55' E 015°04'0 0.0
2018-May-10 15:00N 68°55' E 015°04'0 0.0
2018-May-10 14:30N 68°55' E 015°04'0 0.0
2018-May-10 14:00N 68°55' E 015°04'0 0.0
2018-May-10 13:30N 68°55' E 015°04'0 0.0
2018-May-10 13:00N 68°55' E 015°04'0 0.0
2018-May-10 12:30N 68°55' E 015°04'0 0.0
2018-May-10 12:00N 68°55' E 015°04'0 0.0
2018-May-10 11:30N 68°55' E 015°04'0 0.0
2018-May-10 11:00N 68°55' E 015°04'0 0.0
2018-May-10 10:30N 68°55' E 015°04'0 0.0
2018-May-10 09:59N 68°55' E 015°04'0 0.0
2018-May-10 09:30N 68°55' E 015°04'0 0.0
2018-May-10 09:00N 68°55' E 015°04'0 0.0
2018-May-10 08:29N 68°55' E 015°04'0 0.0
2018-May-10 08:00N 68°55' E 015°04'0 0.0
2018-May-10 07:30N 68°55' E 015°04'0 0.0
2018-May-10 07:00N 68°55' E 015°04'0 0.0
2018-May-10 06:30N 68°55' E 015°04'0 0.0
2018-May-10 06:00N 68°55' E 015°04'0 0.0
2018-May-10 05:30N 68°55' E 015°04'0 0.0
2018-May-10 04:59N 68°55' E 015°04'0 0.0
2018-May-10 04:29N 68°55' E 015°04'0 0.0
2018-May-10 04:00N 68°55' E 015°04'0 0.0
2018-May-10 03:28N 68°55' E 015°04'0 0.0
2018-May-10 03:00N 68°55' E 015°04'0 0.0
2018-May-10 02:30N 68°55' E 015°04'0 0.0
2018-May-10 02:00N 68°55' E 015°04'0 0.0
2018-May-10 01:30N 68°55' E 015°04'0 0.0
2018-May-10 01:00N 68°55' E 015°04'0 0.0
2018-May-10 00:30N 68°55' E 015°04'0 0.0
2018-May-10 00:00N 68°55' E 015°04'0 0.0
2018-May-09 23:30N 68°55' E 015°04'0 0.0
2018-May-09 23:00N 68°55' E 015°04'0 0.0
2018-May-09 22:30N 68°55' E 015°04'0 0.0
2018-May-09 22:00N 68°55' E 015°04'0 0.0
2018-May-09 21:30N 68°55' E 015°04'0 0.0
2018-May-09 21:00N 68°55' E 015°04'0 0.0
2018-May-09 20:30N 68°55' E 015°04'0 0.0
2018-May-09 20:00N 68°55' E 015°04'0 0.0
2018-May-09 19:30N 68°55' E 015°04'0 0.0
2018-May-09 19:00N 68°55' E 015°04'0 0.0
2018-May-09 18:29N 68°55' E 015°04'0 0.0
2018-May-09 18:00N 68°55' E 015°04'0 0.0
2018-May-09 17:30N 68°55' E 015°04'0 0.0
2018-May-09 17:00N 68°55' E 015°04'0 0.0
2018-May-09 16:30N 68°55' E 015°04'2 3.2
2018-May-09 16:00N 68°54' E 015°01'5 8.9
2018-May-09 15:29N 68°52' E 014°49'5 9.8
2018-May-09 14:59N 68°51' E 014°36'510.2
2018-May-09 14:30N 68°48' E 014°25'510.3
2018-May-09 14:00N 68°44' E 014°15'510.4
2018-May-09 13:30N 68°41' E 014°05'5 9.7
2018-May-09 12:59N 68°37' E 013°57'5 9.7
2018-May-09 12:30N 68°33' E 013°48'5 9.6
2018-May-09 12:00N 68°30' E 013°39'5 9.7
2018-May-09 11:30N 68°27' E 013°29'510.2
2018-May-09 10:59N 68°23' E 013°19'510.3
2018-May-09 10:29N 68°19' E 013°10'510.1
2018-May-09 10:00N 68°15' E 013°01'510.1
2018-May-09 09:30N 68°12' E 012°52'510.2
2018-May-09 09:00N 68°07' E 012°44'510.4
2018-May-09 08:30N 68°03' E 012°36'510.3
2018-May-09 08:00N 67°59' E 012°28'510.1
2018-May-09 07:30N 67°55' E 012°21'  
Track history (hours):
 
Tides and Currents Weather Stations Pressure Air Temp Water Temp Dewpoint Dewpoint Depression Visibility Wind Speed Wind Dir Waves Ship Positions

Hav Nordic

Last reported at 2018-May-19 07:02 UTC. Time now 2018-May-21 05:26 UTC.
Position N 57°37' W 001°42'.

Length 75 m; draft 4 m.

Type: Cargo ship. MMSI: 231812000.

Date/timePositionNaut miles runAvg speedWind from/ knotsBaromVisibWave heightAir tempDewpointWater temp
2018-May-19 07:02N 57°37' W 001°42'112.9
2018-May-19 07:00N 57°36' W 001°42'612.5
2018-May-19 06:29N 57°30' W 001°41'611.9
2018-May-19 06:00N 57°24' W 001°43'611.2
2018-May-19 05:26N 57°18' W 001°47'510.7
2018-May-19 05:00N 57°14' W 001°49'510.2
2018-May-19 04:30N 57°09' W 001°52'510.0
2018-May-19 04:00N 57°04' W 001°55'5 9.6
2018-May-19 03:30N 56°60' W 001°58'3510.1
2018-May-19 00:06N 56°27' W 002°19'111.1
2018-May-19 00:00N 56°26' W 002°19'611.3
2018-May-18 23:30N 56°21' W 002°23'611.6
2018-May-18 23:00N 56°15' W 002°27'611.2
2018-May-18 22:30N 56°12' W 002°35'611.4
2018-May-18 22:00N 56°09' W 002°44'611.7
2018-May-18 21:30N 56°07' W 002°54'611.7
2018-May-18 21:00N 56°04' W 003°03'611.5
2018-May-18 20:29N 56°02' W 003°13'3 0.1
2018-May-17 12:39N 56°01' W 003°19'211.6
2018-May-17 12:27N 56°02' W 003°15'510.9
2018-May-17 12:00N 56°03' W 003°07'3 5.6
2018-May-17 11:30N 56°04' W 003°02'5 9.7
2018-May-17 11:00N 56°05' W 002°54'5 9.8
2018-May-17 10:30N 56°07' W 002°46'5 9.6
2018-May-17 10:00N 56°09' W 002°38'5 9.7
2018-May-17 09:30N 56°11' W 002°30'5 9.2
2018-May-17 09:00N 56°15' W 002°26'5 9.2
2018-May-17 08:26N 56°20' W 002°23'4 9.1
2018-May-17 08:00N 56°24' W 002°21'34 9.6
2018-May-17 04:30N 56°55' W 001°60'510.7
2018-May-17 04:00N 56°60' W 001°57'511.0
2018-May-17 03:30N 57°05' W 001°54'611.2
2018-May-17 03:00N 57°11' W 001°51'611.2
2018-May-17 02:30N 57°16' W 001°48'611.9
2018-May-17 02:00N 57°22' W 001°44'611.9
2018-May-17 01:30N 57°27' W 001°40'612.2
2018-May-17 01:00N 57°33' W 001°40'  
2018-May-12 13:14N 68°29' E 012°41'310.7
2018-May-12 13:00N 68°30' E 012°47'510.8
2018-May-12 12:30N 68°33' E 012°60'510.7
2018-May-12 12:00N 68°35' E 013°13'510.7
2018-May-12 11:30N 68°38' E 013°26'510.8
2018-May-12 11:00N 68°40' E 013°38'611.0
2018-May-12 10:30N 68°43' E 013°52'510.9
2018-May-12 10:00N 68°45' E 014°05'510.6
2018-May-12 09:30N 68°48' E 014°18'611.0
2018-May-12 09:00N 68°50' E 014°32'510.9
2018-May-12 08:30N 68°52' E 014°46'510.3
2018-May-12 08:00N 68°53' E 015°00'2 4.1
2018-May-12 07:30N 68°55' E 015°03'0 0.0
2018-May-12 06:56N 68°55' E 015°03'0 0.0
2018-May-12 06:30N 68°55' E 015°03'0 0.0
2018-May-12 05:59N 68°55' E 015°03'0 0.0
2018-May-12 05:30N 68°55' E 015°03'0 0.0
2018-May-12 05:00N 68°55' E 015°03'0 0.5
2018-May-12 04:30N 68°55' E 015°04'0 0.0
2018-May-12 04:00N 68°55' E 015°04'0 0.0
2018-May-12 03:30N 68°55' E 015°04'0 0.0
2018-May-12 03:00N 68°55' E 015°04'0 0.0
2018-May-12 02:28N 68°55' E 015°04'0 0.0
2018-May-12 02:00N 68°55' E 015°04'0 0.0
2018-May-12 01:30N 68°55' E 015°04'0 0.0
2018-May-12 01:00N 68°55' E 015°04'0 0.0
2018-May-12 00:29N 68°55' E 015°04'0 0.0
2018-May-12 00:00N 68°55' E 015°04'0 0.0
2018-May-11 23:30N 68°55' E 015°04'0 0.0
2018-May-11 22:59N 68°55' E 015°04'0 0.0
2018-May-11 22:30N 68°55' E 015°04'0 0.0
2018-May-11 21:59N 68°55' E 015°04'0 0.0
2018-May-11 21:30N 68°55' E 015°04'0 0.0
2018-May-11 20:59N 68°55' E 015°04'0 0.0
2018-May-11 20:30N 68°55' E 015°04'0 0.0
2018-May-11 20:00N 68°55' E 015°04'0 0.0
2018-May-11 19:30N 68°55' E 015°04'0 0.0
2018-May-11 19:00N 68°55' E 015°04'0 0.0
2018-May-11 18:30N 68°55' E 015°04'0 0.0
2018-May-11 18:00N 68°55' E 015°04'0 0.0
2018-May-11 17:30N 68°55' E 015°04'0 0.0
2018-May-11 17:00N 68°55' E 015°04'0 0.0
2018-May-11 16:30N 68°55' E 015°04'0 0.0
2018-May-11 16:00N 68°55' E 015°04'0 0.0
2018-May-11 15:30N 68°55' E 015°04'0 0.0
2018-May-11 14:59N 68°55' E 015°04'0 0.0
2018-May-11 14:30N 68°55' E 015°04'0 0.0
2018-May-11 13:57N 68°55' E 015°04'0 0.0
2018-May-11 13:30N 68°55' E 015°04'0 0.0
2018-May-11 13:00N 68°55' E 015°04'0 0.0
2018-May-11 12:30N 68°55' E 015°04'0 0.0
2018-May-11 12:00N 68°55' E 015°04'0 0.0
2018-May-11 11:30N 68°55' E 015°04'0 0.0
2018-May-11 11:00N 68°55' E 015°04'0 0.0
2018-May-11 10:30N 68°55' E 015°04'0 0.0
2018-May-11 10:00N 68°55' E 015°04'0 0.0
2018-May-11 09:30N 68°55' E 015°04'0 0.0
2018-May-11 09:00N 68°55' E 015°04'0 0.0
2018-May-11 08:30N 68°55' E 015°04'0 0.0
2018-May-11 08:00N 68°55' E 015°04'0 0.0
2018-May-11 07:30N 68°55' E 015°04'0 0.0
2018-May-11 07:00N 68°55' E 015°04'0 0.0
2018-May-11 06:30N 68°55' E 015°04'0 0.0
2018-May-11 06:00N 68°55' E 015°04'0 0.0
2018-May-11 05:30N 68°55' E 015°04'0 0.0
2018-May-11 05:00N 68°55' E 015°04'0 0.0
2018-May-11 04:30N 68°55' E 015°04'0 0.0
2018-May-11 04:00N 68°55' E 015°04'0 0.0
2018-May-11 03:30N 68°55' E 015°04'0 0.0
2018-May-11 02:59N 68°55' E 015°04'0 0.0
2018-May-11 02:29N 68°55' E 015°04'0 0.0
2018-May-11 02:00N 68°55' E 015°04'0 0.0
2018-May-11 01:30N 68°55' E 015°04'0 0.0
2018-May-11 01:00N 68°55' E 015°04'0 0.0
2018-May-11 00:30N 68°55' E 015°04'0 0.0
2018-May-11 00:00N 68°55' E 015°04'0 0.0
2018-May-10 23:30N 68°55' E 015°04'0 0.0
2018-May-10 23:00N 68°55' E 015°04'0 0.0
2018-May-10 22:30N 68°55' E 015°04'0 0.0
2018-May-10 22:00N 68°55' E 015°04'0 0.0
2018-May-10 21:30N 68°55' E 015°04'0 0.0
2018-May-10 21:00N 68°55' E 015°04'0 0.0
2018-May-10 20:30N 68°55' E 015°04'0 0.0
2018-May-10 19:59N 68°55' E 015°04'0 0.0
2018-May-10 19:30N 68°55' E 015°04'0 0.0
2018-May-10 18:59N 68°55' E 015°04'0 0.0
2018-May-10 18:30N 68°55' E 015°04'0 0.0
2018-May-10 18:00N 68°55' E 015°04'0 0.0
2018-May-10 17:30N 68°55' E 015°04'0 0.0
2018-May-10 17:00N 68°55' E 015°04'0 0.0
2018-May-10 16:30N 68°55' E 015°04'0 0.0
2018-May-10 16:00N 68°55' E 015°04'0 0.0
2018-May-10 15:30N 68°55' E 015°04'0 0.0
2018-May-10 15:00N 68°55' E 015°04'0 0.0
2018-May-10 14:30N 68°55' E 015°04'0 0.0
2018-May-10 14:00N 68°55' E 015°04'0 0.0
2018-May-10 13:30N 68°55' E 015°04'0 0.0
2018-May-10 13:00N 68°55' E 015°04'0 0.0
2018-May-10 12:30N 68°55' E 015°04'0 0.0
2018-May-10 12:00N 68°55' E 015°04'0 0.0
2018-May-10 11:30N 68°55' E 015°04'0 0.0
2018-May-10 11:00N 68°55' E 015°04'0 0.0
2018-May-10 10:30N 68°55' E 015°04'0 0.0
2018-May-10 09:59N 68°55' E 015°04'0 0.0
2018-May-10 09:30N 68°55' E 015°04'0 0.0
2018-May-10 09:00N 68°55' E 015°04'0 0.0
2018-May-10 08:29N 68°55' E 015°04'0 0.0
2018-May-10 08:00N 68°55' E 015°04'0 0.0
2018-May-10 07:30N 68°55' E 015°04'0 0.0
2018-May-10 07:00N 68°55' E 015°04'0 0.0
2018-May-10 06:30N 68°55' E 015°04'0 0.0
2018-May-10 06:00N 68°55' E 015°04'0 0.0
2018-May-10 05:30N 68°55' E 015°04'0 0.0
2018-May-10 04:59N 68°55' E 015°04'0 0.0
2018-May-10 04:29N 68°55' E 015°04'0 0.0
2018-May-10 04:00N 68°55' E 015°04'0 0.0
2018-May-10 03:28N 68°55' E 015°04'0 0.0
2018-May-10 03:00N 68°55' E 015°04'0 0.0
2018-May-10 02:30N 68°55' E 015°04'0 0.0
2018-May-10 02:00N 68°55' E 015°04'0 0.0
2018-May-10 01:30N 68°55' E 015°04'0 0.0
2018-May-10 01:00N 68°55' E 015°04'0 0.0
2018-May-10 00:30N 68°55' E 015°04'0 0.0
2018-May-10 00:00N 68°55' E 015°04'0 0.0
2018-May-09 23:30N 68°55' E 015°04'0 0.0
2018-May-09 23:00N 68°55' E 015°04'0 0.0
2018-May-09 22:30N 68°55' E 015°04'0 0.0
2018-May-09 22:00N 68°55' E 015°04'0 0.0
2018-May-09 21:30N 68°55' E 015°04'0 0.0
2018-May-09 21:00N 68°55' E 015°04'0 0.0
2018-May-09 20:30N 68°55' E 015°04'0 0.0
2018-May-09 20:00N 68°55' E 015°04'0 0.0
2018-May-09 19:30N 68°55' E 015°04'0 0.0
2018-May-09 19:00N 68°55' E 015°04'0 0.0
2018-May-09 18:29N 68°55' E 015°04'0 0.0
2018-May-09 18:00N 68°55' E 015°04'0 0.0
2018-May-09 17:30N 68°55' E 015°04'0 0.0
2018-May-09 17:00N 68°55' E 015°04'0 0.0
2018-May-09 16:30N 68°55' E 015°04'2 3.2
2018-May-09 16:00N 68°54' E 015°01'5 8.9
2018-May-09 15:29N 68°52' E 014°49'5 9.8
2018-May-09 14:59N 68°51' E 014°36'510.2
2018-May-09 14:30N 68°48' E 014°25'510.3
2018-May-09 14:00N 68°44' E 014°15'510.4
2018-May-09 13:30N 68°41' E 014°05'5 9.7
2018-May-09 12:59N 68°37' E 013°57'5 9.7
2018-May-09 12:30N 68°33' E 013°48'5 9.6
2018-May-09 12:00N 68°30' E 013°39'5 9.7
2018-May-09 11:30N 68°27' E 013°29'510.2
2018-May-09 10:59N 68°23' E 013°19'510.3
2018-May-09 10:29N 68°19' E 013°10'510.1
2018-May-09 10:00N 68°15' E 013°01'510.1
2018-May-09 09:30N 68°12' E 012°52'510.2
2018-May-09 09:00N 68°07' E 012°44'510.4
2018-May-09 08:30N 68°03' E 012°36'510.3
2018-May-09 08:00N 67°59' E 012°28'510.1
2018-May-09 07:30N 67°55' E 012°21'  

Dump ship's entire track history